sensor_id;sensor_type;location;lat;lon;timestamp;P1;durP1;ratioP1;P2;durP2;ratioP2
15968;SDS011;8085;53.472;9.794;2023-04-25T00:01:22;10.13;;;3.70;;
15968;SDS011;8085;53.472;9.794;2023-04-25T00:03:49;8.63;;;3.37;;
15968;SDS011;8085;53.472;9.794;2023-04-25T00:06:16;7.07;;;3.30;;
15968;SDS011;8085;53.472;9.794;2023-04-25T00:08:43;7.97;;;3.10;;
15968;SDS011;8085;53.472;9.794;2023-04-25T00:11:12;7.30;;;3.73;;
15968;SDS011;8085;53.472;9.794;2023-04-25T00:13:39;9.80;;;3.47;;
15968;SDS011;8085;53.472;9.794;2023-04-25T00:16:06;14.47;;;3.90;;
15968;SDS011;8085;53.472;9.794;2023-04-25T00:18:33;10.53;;;3.70;;
15968;SDS011;8085;53.472;9.794;2023-04-25T00:21:01;13.03;;;3.87;;
15968;SDS011;8085;53.472;9.794;2023-04-25T00:23:31;16.90;;;3.43;;
15968;SDS011;8085;53.472;9.794;2023-04-25T00:25:58;10.10;;;3.70;;
15968;SDS011;8085;53.472;9.794;2023-04-25T00:28:26;10.70;;;3.50;;
15968;SDS011;8085;53.472;9.794;2023-04-25T00:30:53;14.80;;;4.20;;
15968;SDS011;8085;53.472;9.794;2023-04-25T00:33:20;14.33;;;4.13;;
15968;SDS011;8085;53.472;9.794;2023-04-25T00:35:47;20.53;;;4.87;;
15968;SDS011;8085;53.472;9.794;2023-04-25T00:38:14;16.07;;;3.80;;
15968;SDS011;8085;53.472;9.794;2023-04-25T00:40:40;14.83;;;3.80;;
15968;SDS011;8085;53.472;9.794;2023-04-25T00:43:08;16.00;;;4.10;;
15968;SDS011;8085;53.472;9.794;2023-04-25T00:45:37;17.53;;;4.00;;
15968;SDS011;8085;53.472;9.794;2023-04-25T00:48:05;18.10;;;4.10;;
15968;SDS011;8085;53.472;9.794;2023-04-25T00:50:32;21.27;;;4.60;;
15968;SDS011;8085;53.472;9.794;2023-04-25T00:52:59;21.13;;;5.23;;
15968;SDS011;8085;53.472;9.794;2023-04-25T00:55:28;17.23;;;3.57;;
15968;SDS011;8085;53.472;9.794;2023-04-25T00:57:56;22.50;;;4.23;;
15968;SDS011;8085;53.472;9.794;2023-04-25T01:00:23;17.73;;;4.57;;
15968;SDS011;8085;53.472;9.794;2023-04-25T01:02:52;18.10;;;3.80;;
15968;SDS011;8085;53.472;9.794;2023-04-25T01:05:19;14.27;;;3.70;;
15968;SDS011;8085;53.472;9.794;2023-04-25T01:07:46;17.73;;;3.63;;
15968;SDS011;8085;53.472;9.794;2023-04-25T01:10:13;21.57;;;4.27;;
15968;SDS011;8085;53.472;9.794;2023-04-25T01:12:40;16.00;;;4.27;;
15968;SDS011;8085;53.472;9.794;2023-04-25T01:15:08;21.53;;;4.27;;
15968;SDS011;8085;53.472;9.794;2023-04-25T01:17:35;20.23;;;4.70;;
15968;SDS011;8085;53.472;9.794;2023-04-25T01:20:04;17.30;;;3.77;;
15968;SDS011;8085;53.472;9.794;2023-04-25T01:22:35;19.97;;;5.00;;
15968;SDS011;8085;53.472;9.794;2023-04-25T01:25:03;18.53;;;4.10;;
15968;SDS011;8085;53.472;9.794;2023-04-25T01:27:31;20.73;;;4.83;;
15968;SDS011;8085;53.472;9.794;2023-04-25T01:29:58;20.30;;;4.60;;
15968;SDS011;8085;53.472;9.794;2023-04-25T01:32:26;14.67;;;4.27;;
15968;SDS011;8085;53.472;9.794;2023-04-25T01:34:53;22.07;;;4.93;;
15968;SDS011;8085;53.472;9.794;2023-04-25T01:37:20;21.07;;;4.23;;
15968;SDS011;8085;53.472;9.794;2023-04-25T01:39:48;18.47;;;4.20;;
15968;SDS011;8085;53.472;9.794;2023-04-25T01:42:16;20.37;;;4.50;;
15968;SDS011;8085;53.472;9.794;2023-04-25T01:44:43;20.23;;;4.13;;
15968;SDS011;8085;53.472;9.794;2023-04-25T01:47:10;21.77;;;4.70;;
15968;SDS011;8085;53.472;9.794;2023-04-25T01:49:36;15.17;;;4.10;;
15968;SDS011;8085;53.472;9.794;2023-04-25T01:52:03;22.87;;;5.00;;
15968;SDS011;8085;53.472;9.794;2023-04-25T01:54:30;22.07;;;4.33;;
15968;SDS011;8085;53.472;9.794;2023-04-25T01:56:59;17.50;;;3.80;;
15968;SDS011;8085;53.472;9.794;2023-04-25T01:59:26;19.37;;;4.23;;
15968;SDS011;8085;53.472;9.794;2023-04-25T02:01:53;17.93;;;4.67;;
15968;SDS011;8085;53.472;9.794;2023-04-25T02:04:20;20.10;;;3.90;;
15968;SDS011;8085;53.472;9.794;2023-04-25T02:06:47;21.97;;;4.50;;
15968;SDS011;8085;53.472;9.794;2023-04-25T02:09:14;18.20;;;4.53;;
15968;SDS011;8085;53.472;9.794;2023-04-25T02:11:41;22.53;;;4.67;;
15968;SDS011;8085;53.472;9.794;2023-04-25T02:14:09;21.83;;;5.37;;
15968;SDS011;8085;53.472;9.794;2023-04-25T02:16:36;24.30;;;4.60;;
15968;SDS011;8085;53.472;9.794;2023-04-25T02:19:04;20.50;;;4.77;;
15968;SDS011;8085;53.472;9.794;2023-04-25T02:21:31;21.10;;;4.37;;
15968;SDS011;8085;53.472;9.794;2023-04-25T02:24:00;18.13;;;4.27;;
15968;SDS011;8085;53.472;9.794;2023-04-25T02:26:27;20.70;;;4.43;;
15968;SDS011;8085;53.472;9.794;2023-04-25T02:28:55;17.27;;;4.13;;
15968;SDS011;8085;53.472;9.794;2023-04-25T02:31:24;15.70;;;3.73;;
15968;SDS011;8085;53.472;9.794;2023-04-25T02:33:51;22.37;;;4.40;;
15968;SDS011;8085;53.472;9.794;2023-04-25T02:36:20;15.27;;;3.73;;
15968;SDS011;8085;53.472;9.794;2023-04-25T02:38:47;19.23;;;4.17;;
15968;SDS011;8085;53.472;9.794;2023-04-25T02:41:14;21.33;;;4.33;;
15968;SDS011;8085;53.472;9.794;2023-04-25T02:43:41;18.30;;;3.77;;
15968;SDS011;8085;53.472;9.794;2023-04-25T02:46:08;20.77;;;4.50;;
15968;SDS011;8085;53.472;9.794;2023-04-25T02:48:36;20.30;;;4.60;;
15968;SDS011;8085;53.472;9.794;2023-04-25T02:51:03;18.63;;;3.97;;
15968;SDS011;8085;53.472;9.794;2023-04-25T02:53:30;16.63;;;3.90;;
15968;SDS011;8085;53.472;9.794;2023-04-25T02:55:57;17.97;;;3.80;;
15968;SDS011;8085;53.472;9.794;2023-04-25T02:58:24;20.40;;;4.47;;
15968;SDS011;8085;53.472;9.794;2023-04-25T03:00:51;13.47;;;3.60;;
15968;SDS011;8085;53.472;9.794;2023-04-25T03:03:18;19.00;;;4.37;;
15968;SDS011;8085;53.472;9.794;2023-04-25T03:05:48;18.13;;;4.40;;
15968;SDS011;8085;53.472;9.794;2023-04-25T03:08:15;18.13;;;3.93;;
15968;SDS011;8085;53.472;9.794;2023-04-25T03:10:42;16.57;;;3.40;;
15968;SDS011;8085;53.472;9.794;2023-04-25T03:13:10;20.97;;;4.20;;
15968;SDS011;8085;53.472;9.794;2023-04-25T03:15:37;16.60;;;4.30;;
15968;SDS011;8085;53.472;9.794;2023-04-25T03:18:05;22.20;;;3.67;;
15968;SDS011;8085;53.472;9.794;2023-04-25T03:20:32;11.70;;;3.60;;
15968;SDS011;8085;53.472;9.794;2023-04-25T03:23:01;14.87;;;3.47;;
15968;SDS011;8085;53.472;9.794;2023-04-25T03:25:27;13.03;;;4.10;;
15968;SDS011;8085;53.472;9.794;2023-04-25T03:27:54;17.67;;;3.70;;
15968;SDS011;8085;53.472;9.794;2023-04-25T03:30:22;19.70;;;4.33;;
15968;SDS011;8085;53.472;9.794;2023-04-25T03:32:48;17.80;;;3.87;;
15968;SDS011;8085;53.472;9.794;2023-04-25T03:35:15;21.17;;;4.43;;
15968;SDS011;8085;53.472;9.794;2023-04-25T03:37:42;14.13;;;3.90;;
15968;SDS011;8085;53.472;9.794;2023-04-25T03:40:12;16.50;;;3.73;;
15968;SDS011;8085;53.472;9.794;2023-04-25T03:42:39;18.07;;;3.83;;
15968;SDS011;8085;53.472;9.794;2023-04-25T03:45:06;14.80;;;3.57;;
15968;SDS011;8085;53.472;9.794;2023-04-25T03:47:36;24.90;;;4.40;;
15968;SDS011;8085;53.472;9.794;2023-04-25T03:50:03;18.40;;;3.97;;
15968;SDS011;8085;53.472;9.794;2023-04-25T03:52:30;10.03;;;2.70;;
15968;SDS011;8085;53.472;9.794;2023-04-25T03:54:57;15.63;;;3.13;;
15968;SDS011;8085;53.472;9.794;2023-04-25T03:57:26;17.23;;;3.57;;
15968;SDS011;8085;53.472;9.794;2023-04-25T03:59:53;25.00;;;3.87;;
15968;SDS011;8085;53.472;9.794;2023-04-25T04:02:19;19.87;;;3.67;;
15968;SDS011;8085;53.472;9.794;2023-04-25T04:04:46;13.73;;;3.37;;
15968;SDS011;8085;53.472;9.794;2023-04-25T04:07:13;13.50;;;3.40;;
15968;SDS011;8085;53.472;9.794;2023-04-25T04:09:40;15.40;;;3.30;;
15968;SDS011;8085;53.472;9.794;2023-04-25T04:12:07;15.43;;;3.60;;
15968;SDS011;8085;53.472;9.794;2023-04-25T04:14:35;13.67;;;3.37;;
15968;SDS011;8085;53.472;9.794;2023-04-25T04:17:02;12.33;;;3.20;;
15968;SDS011;8085;53.472;9.794;2023-04-25T04:19:29;17.90;;;3.83;;
15968;SDS011;8085;53.472;9.794;2023-04-25T04:21:56;24.33;;;3.63;;
15968;SDS011;8085;53.472;9.794;2023-04-25T04:24:23;16.87;;;4.30;;
15968;SDS011;8085;53.472;9.794;2023-04-25T04:26:50;15.43;;;3.67;;
15968;SDS011;8085;53.472;9.794;2023-04-25T04:29:17;12.80;;;3.37;;
15968;SDS011;8085;53.472;9.794;2023-04-25T04:31:48;10.57;;;3.33;;
15968;SDS011;8085;53.472;9.794;2023-04-25T04:34:15;11.83;;;3.53;;
15968;SDS011;8085;53.472;9.794;2023-04-25T04:36:43;17.10;;;3.87;;
15968;SDS011;8085;53.472;9.794;2023-04-25T04:39:11;18.37;;;3.63;;
15968;SDS011;8085;53.472;9.794;2023-04-25T04:41:38;12.17;;;3.07;;
15968;SDS011;8085;53.472;9.794;2023-04-25T04:44:05;15.70;;;3.60;;
15968;SDS011;8085;53.472;9.794;2023-04-25T04:46:33;14.13;;;3.40;;
15968;SDS011;8085;53.472;9.794;2023-04-25T04:49:04;15.97;;;3.50;;
15968;SDS011;8085;53.472;9.794;2023-04-25T04:51:31;15.57;;;3.70;;
15968;SDS011;8085;53.472;9.794;2023-04-25T04:53:58;14.33;;;3.70;;
15968;SDS011;8085;53.472;9.794;2023-04-25T04:56:27;19.83;;;3.60;;
15968;SDS011;8085;53.472;9.794;2023-04-25T04:58:56;20.07;;;3.77;;
15968;SDS011;8085;53.472;9.794;2023-04-25T05:01:23;10.40;;;3.00;;
15968;SDS011;8085;53.472;9.794;2023-04-25T05:03:50;17.37;;;3.40;;
15968;SDS011;8085;53.472;9.794;2023-04-25T05:06:19;20.83;;;4.33;;
15968;SDS011;8085;53.472;9.794;2023-04-25T05:08:46;20.23;;;3.93;;
15968;SDS011;8085;53.472;9.794;2023-04-25T05:11:13;19.97;;;3.50;;
15968;SDS011;8085;53.472;9.794;2023-04-25T05:13:39;15.47;;;4.17;;
15968;SDS011;8085;53.472;9.794;2023-04-25T05:16:06;18.20;;;3.40;;
15968;SDS011;8085;53.472;9.794;2023-04-25T05:18:33;14.77;;;3.70;;
15968;SDS011;8085;53.472;9.794;2023-04-25T05:21:01;14.87;;;3.53;;
15968;SDS011;8085;53.472;9.794;2023-04-25T05:23:40;15.00;;;3.20;;
15968;SDS011;8085;53.472;9.794;2023-04-25T05:26:07;14.37;;;3.27;;
15968;SDS011;8085;53.472;9.794;2023-04-25T05:28:38;14.90;;;2.90;;
15968;SDS011;8085;53.472;9.794;2023-04-25T05:31:05;11.00;;;3.17;;
15968;SDS011;8085;53.472;9.794;2023-04-25T05:33:32;11.13;;;3.10;;
15968;SDS011;8085;53.472;9.794;2023-04-25T05:35:59;13.33;;;3.30;;
15968;SDS011;8085;53.472;9.794;2023-04-25T05:38:26;17.73;;;3.70;;
15968;SDS011;8085;53.472;9.794;2023-04-25T05:40:57;10.57;;;3.00;;
15968;SDS011;8085;53.472;9.794;2023-04-25T05:43:26;13.83;;;2.37;;
15968;SDS011;8085;53.472;9.794;2023-04-25T05:45:52;13.27;;;3.30;;
15968;SDS011;8085;53.472;9.794;2023-04-25T05:48:19;11.93;;;3.00;;
15968;SDS011;8085;53.472;9.794;2023-04-25T05:50:46;13.87;;;3.03;;
15968;SDS011;8085;53.472;9.794;2023-04-25T05:53:13;16.90;;;3.10;;
15968;SDS011;8085;53.472;9.794;2023-04-25T05:55:40;13.53;;;2.93;;
15968;SDS011;8085;53.472;9.794;2023-04-25T05:58:08;10.50;;;2.87;;
15968;SDS011;8085;53.472;9.794;2023-04-25T06:00:35;13.07;;;2.73;;
15968;SDS011;8085;53.472;9.794;2023-04-25T06:03:02;9.50;;;2.87;;
15968;SDS011;8085;53.472;9.794;2023-04-25T06:05:30;12.70;;;2.90;;
15968;SDS011;8085;53.472;9.794;2023-04-25T06:07:57;11.80;;;3.03;;
15968;SDS011;8085;53.472;9.794;2023-04-25T06:10:23;16.73;;;3.17;;
15968;SDS011;8085;53.472;9.794;2023-04-25T06:12:50;8.40;;;2.80;;
15968;SDS011;8085;53.472;9.794;2023-04-25T06:15:19;14.37;;;3.20;;
15968;SDS011;8085;53.472;9.794;2023-04-25T06:17:46;15.83;;;3.83;;
15968;SDS011;8085;53.472;9.794;2023-04-25T06:20:13;19.63;;;3.73;;
15968;SDS011;8085;53.472;9.794;2023-04-25T06:22:40;16.20;;;3.23;;
15968;SDS011;8085;53.472;9.794;2023-04-25T06:25:08;13.17;;;3.50;;
15968;SDS011;8085;53.472;9.794;2023-04-25T06:27:37;15.60;;;3.43;;
15968;SDS011;8085;53.472;9.794;2023-04-25T06:30:05;16.03;;;3.27;;
15968;SDS011;8085;53.472;9.794;2023-04-25T06:32:34;10.67;;;2.80;;
15968;SDS011;8085;53.472;9.794;2023-04-25T06:35:01;9.30;;;3.00;;
15968;SDS011;8085;53.472;9.794;2023-04-25T06:37:28;10.93;;;2.97;;
15968;SDS011;8085;53.472;9.794;2023-04-25T06:39:55;14.83;;;3.23;;
15968;SDS011;8085;53.472;9.794;2023-04-25T06:42:22;12.73;;;2.93;;
15968;SDS011;8085;53.472;9.794;2023-04-25T06:44:49;22.90;;;5.00;;
15968;SDS011;8085;53.472;9.794;2023-04-25T06:47:16;12.07;;;2.63;;
15968;SDS011;8085;53.472;9.794;2023-04-25T06:49:44;15.23;;;3.00;;
15968;SDS011;8085;53.472;9.794;2023-04-25T06:52:11;10.33;;;2.67;;
15968;SDS011;8085;53.472;9.794;2023-04-25T06:54:38;10.20;;;2.77;;
15968;SDS011;8085;53.472;9.794;2023-04-25T06:57:05;10.30;;;3.07;;
15968;SDS011;8085;53.472;9.794;2023-04-25T06:59:32;15.30;;;4.03;;
15968;SDS011;8085;53.472;9.794;2023-04-25T07:01:59;14.03;;;2.73;;
15968;SDS011;8085;53.472;9.794;2023-04-25T07:04:27;13.83;;;2.90;;
15968;SDS011;8085;53.472;9.794;2023-04-25T07:06:55;11.43;;;2.83;;
15968;SDS011;8085;53.472;9.794;2023-04-25T07:09:22;11.03;;;3.50;;
15968;SDS011;8085;53.472;9.794;2023-04-25T07:11:50;19.63;;;3.27;;
15968;SDS011;8085;53.472;9.794;2023-04-25T07:14:17;11.37;;;2.90;;
15968;SDS011;8085;53.472;9.794;2023-04-25T07:16:44;17.40;;;3.50;;
15968;SDS011;8085;53.472;9.794;2023-04-25T07:19:11;8.47;;;3.00;;
15968;SDS011;8085;53.472;9.794;2023-04-25T07:21:38;14.63;;;2.97;;
15968;SDS011;8085;53.472;9.794;2023-04-25T07:24:06;12.43;;;2.70;;
15968;SDS011;8085;53.472;9.794;2023-04-25T07:26:33;16.17;;;2.70;;
15968;SDS011;8085;53.472;9.794;2023-04-25T07:29:00;10.33;;;2.60;;
15968;SDS011;8085;53.472;9.794;2023-04-25T07:31:27;7.53;;;2.70;;
15968;SDS011;8085;53.472;9.794;2023-04-25T07:33:54;13.57;;;3.10;;
15968;SDS011;8085;53.472;9.794;2023-04-25T07:36:21;9.97;;;2.60;;
15968;SDS011;8085;53.472;9.794;2023-04-25T07:38:48;12.77;;;2.23;;
15968;SDS011;8085;53.472;9.794;2023-04-25T07:41:16;12.60;;;2.33;;
15968;SDS011;8085;53.472;9.794;2023-04-25T07:43:43;6.43;;;1.97;;
15968;SDS011;8085;53.472;9.794;2023-04-25T07:46:10;5.70;;;1.33;;
15968;SDS011;8085;53.472;9.794;2023-04-25T07:48:40;8.10;;;1.87;;
15968;SDS011;8085;53.472;9.794;2023-04-25T07:51:07;6.40;;;1.50;;
15968;SDS011;8085;53.472;9.794;2023-04-25T07:53:36;4.63;;;1.67;;
15968;SDS011;8085;53.472;9.794;2023-04-25T07:56:03;7.83;;;1.87;;
15968;SDS011;8085;53.472;9.794;2023-04-25T07:58:32;7.20;;;1.80;;
15968;SDS011;8085;53.472;9.794;2023-04-25T08:01:00;5.07;;;1.60;;
15968;SDS011;8085;53.472;9.794;2023-04-25T08:03:27;7.73;;;2.20;;
15968;SDS011;8085;53.472;9.794;2023-04-25T08:05:54;5.37;;;1.63;;
15968;SDS011;8085;53.472;9.794;2023-04-25T08:08:21;4.63;;;1.20;;
15968;SDS011;8085;53.472;9.794;2023-04-25T08:10:48;7.10;;;2.10;;
15968;SDS011;8085;53.472;9.794;2023-04-25T08:13:15;8.37;;;2.17;;
15968;SDS011;8085;53.472;9.794;2023-04-25T08:15:43;6.97;;;1.90;;
15968;SDS011;8085;53.472;9.794;2023-04-25T08:18:10;7.67;;;1.77;;
15968;SDS011;8085;53.472;9.794;2023-04-25T08:20:37;7.97;;;1.60;;
15968;SDS011;8085;53.472;9.794;2023-04-25T08:23:04;7.93;;;1.67;;
15968;SDS011;8085;53.472;9.794;2023-04-25T08:25:31;7.80;;;1.90;;
15968;SDS011;8085;53.472;9.794;2023-04-25T08:27:58;7.23;;;1.80;;
15968;SDS011;8085;53.472;9.794;2023-04-25T08:30:27;7.43;;;1.40;;
15968;SDS011;8085;53.472;9.794;2023-04-25T08:32:57;4.10;;;1.17;;
15968;SDS011;8085;53.472;9.794;2023-04-25T08:35:24;2.97;;;1.43;;
15968;SDS011;8085;53.472;9.794;2023-04-25T08:37:52;10.37;;;2.07;;
15968;SDS011;8085;53.472;9.794;2023-04-25T08:40:19;8.30;;;1.50;;
15968;SDS011;8085;53.472;9.794;2023-04-25T08:42:51;9.40;;;1.80;;
15968;SDS011;8085;53.472;9.794;2023-04-25T08:45:20;12.57;;;2.13;;
15968;SDS011;8085;53.472;9.794;2023-04-25T08:47:48;6.90;;;1.97;;
15968;SDS011;8085;53.472;9.794;2023-04-25T08:50:19;10.00;;;2.17;;
15968;SDS011;8085;53.472;9.794;2023-04-25T08:52:48;7.47;;;1.93;;
15968;SDS011;8085;53.472;9.794;2023-04-25T08:55:17;10.80;;;2.00;;
15968;SDS011;8085;53.472;9.794;2023-04-25T08:57:46;6.73;;;1.80;;
15968;SDS011;8085;53.472;9.794;2023-04-25T09:00:14;5.63;;;1.40;;
15968;SDS011;8085;53.472;9.794;2023-04-25T09:02:48;5.13;;;1.10;;
15968;SDS011;8085;53.472;9.794;2023-04-25T09:05:15;6.67;;;1.37;;
15968;SDS011;8085;53.472;9.794;2023-04-25T09:07:44;6.37;;;1.47;;
15968;SDS011;8085;53.472;9.794;2023-04-25T09:10:11;4.13;;;1.33;;
15968;SDS011;8085;53.472;9.794;2023-04-25T09:12:39;4.13;;;1.40;;
15968;SDS011;8085;53.472;9.794;2023-04-25T09:15:10;6.87;;;1.63;;
15968;SDS011;8085;53.472;9.794;2023-04-25T09:17:41;6.93;;;1.43;;
15968;SDS011;8085;53.472;9.794;2023-04-25T09:20:10;9.67;;;1.57;;
15968;SDS011;8085;53.472;9.794;2023-04-25T09:22:38;6.10;;;1.47;;
15968;SDS011;8085;53.472;9.794;2023-04-25T09:25:11;4.87;;;1.40;;
15968;SDS011;8085;53.472;9.794;2023-04-25T09:27:48;4.93;;;1.23;;
15968;SDS011;8085;53.472;9.794;2023-04-25T09:30:17;7.57;;;1.50;;
15968;SDS011;8085;53.472;9.794;2023-04-25T09:32:44;6.70;;;1.63;;
15968;SDS011;8085;53.472;9.794;2023-04-25T09:35:11;8.43;;;1.67;;
15968;SDS011;8085;53.472;9.794;2023-04-25T09:37:50;9.20;;;1.80;;
15968;SDS011;8085;53.472;9.794;2023-04-25T09:40:18;2.93;;;1.33;;
15968;SDS011;8085;53.472;9.794;2023-04-25T09:42:46;9.50;;;1.70;;
15968;SDS011;8085;53.472;9.794;2023-04-25T09:45:13;5.07;;;1.37;;
15968;SDS011;8085;53.472;9.794;2023-04-25T09:47:41;8.70;;;2.00;;
15968;SDS011;8085;53.472;9.794;2023-04-25T09:50:15;4.37;;;1.10;;
15968;SDS011;8085;53.472;9.794;2023-04-25T09:53:02;5.30;;;1.60;;
15968;SDS011;8085;53.472;9.794;2023-04-25T09:55:32;6.47;;;1.20;;
15968;SDS011;8085;53.472;9.794;2023-04-25T09:58:04;5.27;;;1.33;;
15968;SDS011;8085;53.472;9.794;2023-04-25T10:00:33;9.70;;;1.60;;
15968;SDS011;8085;53.472;9.794;2023-04-25T10:03:01;5.00;;;1.73;;
15968;SDS011;8085;53.472;9.794;2023-04-25T10:05:30;4.17;;;1.83;;
15968;SDS011;8085;53.472;9.794;2023-04-25T10:07:59;9.03;;;1.47;;
15968;SDS011;8085;53.472;9.794;2023-04-25T10:10:32;8.63;;;1.60;;
15968;SDS011;8085;53.472;9.794;2023-04-25T10:13:04;11.43;;;1.80;;
15968;SDS011;8085;53.472;9.794;2023-04-25T10:15:33;5.53;;;1.47;;
15968;SDS011;8085;53.472;9.794;2023-04-25T10:18:01;6.77;;;1.60;;
15968;SDS011;8085;53.472;9.794;2023-04-25T10:20:29;5.77;;;1.40;;
15968;SDS011;8085;53.472;9.794;2023-04-25T10:23:04;11.07;;;2.03;;
15968;SDS011;8085;53.472;9.794;2023-04-25T10:25:41;8.43;;;1.57;;
15968;SDS011;8085;53.472;9.794;2023-04-25T10:28:10;8.17;;;1.93;;
15968;SDS011;8085;53.472;9.794;2023-04-25T10:30:37;7.90;;;1.80;;
15968;SDS011;8085;53.472;9.794;2023-04-25T10:33:29;4.23;;;1.27;;
15968;SDS011;8085;53.472;9.794;2023-04-25T10:38:41;5.40;;;1.63;;
15968;SDS011;8085;53.472;9.794;2023-04-25T10:41:11;7.93;;;1.63;;
15968;SDS011;8085;53.472;9.794;2023-04-25T10:43:40;8.43;;;1.50;;
15968;SDS011;8085;53.472;9.794;2023-04-25T10:46:15;5.57;;;1.40;;
15968;SDS011;8085;53.472;9.794;2023-04-25T10:48:44;5.00;;;1.40;;
15968;SDS011;8085;53.472;9.794;2023-04-25T10:51:21;7.10;;;1.20;;
15968;SDS011;8085;53.472;9.794;2023-04-25T10:53:58;8.70;;;1.77;;
15968;SDS011;8085;53.472;9.794;2023-04-25T10:56:28;6.43;;;1.20;;
15968;SDS011;8085;53.472;9.794;2023-04-25T10:59:05;8.80;;;1.20;;
15968;SDS011;8085;53.472;9.794;2023-04-25T11:01:35;5.00;;;1.50;;
15968;SDS011;8085;53.472;9.794;2023-04-25T11:04:04;4.00;;;1.17;;
15968;SDS011;8085;53.472;9.794;2023-04-25T11:06:54;5.83;;;1.30;;
15968;SDS011;8085;53.472;9.794;2023-04-25T11:09:32;2.83;;;1.30;;
15968;SDS011;8085;53.472;9.794;2023-04-25T11:12:04;9.70;;;1.50;;
15968;SDS011;8085;53.472;9.794;2023-04-25T11:14:33;5.23;;;1.50;;
15968;SDS011;8085;53.472;9.794;2023-04-25T11:17:00;8.33;;;1.50;;
15968;SDS011;8085;53.472;9.794;2023-04-25T11:19:28;4.40;;;1.20;;
15968;SDS011;8085;53.472;9.794;2023-04-25T11:21:55;7.80;;;1.10;;
15968;SDS011;8085;53.472;9.794;2023-04-25T11:24:25;5.77;;;1.53;;
15968;SDS011;8085;53.472;9.794;2023-04-25T11:26:53;7.40;;;1.70;;
15968;SDS011;8085;53.472;9.794;2023-04-25T11:29:23;8.60;;;1.37;;
15968;SDS011;8085;53.472;9.794;2023-04-25T11:31:50;7.33;;;1.47;;
15968;SDS011;8085;53.472;9.794;2023-04-25T11:34:21;6.20;;;1.30;;
15968;SDS011;8085;53.472;9.794;2023-04-25T11:36:49;6.77;;;1.57;;
15968;SDS011;8085;53.472;9.794;2023-04-25T11:39:17;15.03;;;2.80;;
15968;SDS011;8085;53.472;9.794;2023-04-25T11:41:44;8.13;;;1.30;;
15968;SDS011;8085;53.472;9.794;2023-04-25T11:44:12;6.20;;;1.27;;
15968;SDS011;8085;53.472;9.794;2023-04-25T11:46:44;3.47;;;1.10;;
15968;SDS011;8085;53.472;9.794;2023-04-25T11:49:12;3.33;;;0.93;;
15968;SDS011;8085;53.472;9.794;2023-04-25T11:51:39;4.00;;;1.23;;
15968;SDS011;8085;53.472;9.794;2023-04-25T11:54:09;3.60;;;1.17;;
15968;SDS011;8085;53.472;9.794;2023-04-25T11:56:37;3.80;;;1.40;;
15968;SDS011;8085;53.472;9.794;2023-04-25T11:59:06;7.30;;;1.57;;
15968;SDS011;8085;53.472;9.794;2023-04-25T12:01:34;6.10;;;1.43;;
15968;SDS011;8085;53.472;9.794;2023-04-25T12:04:13;4.87;;;1.33;;
15968;SDS011;8085;53.472;9.794;2023-04-25T12:06:42;4.40;;;1.70;;
15968;SDS011;8085;53.472;9.794;2023-04-25T12:09:11;4.93;;;1.40;;
15968;SDS011;8085;53.472;9.794;2023-04-25T12:11:42;8.40;;;1.33;;
15968;SDS011;8085;53.472;9.794;2023-04-25T12:14:10;6.30;;;1.10;;
15968;SDS011;8085;53.472;9.794;2023-04-25T12:16:44;9.00;;;1.40;;
15968;SDS011;8085;53.472;9.794;2023-04-25T12:19:14;7.13;;;1.60;;
15968;SDS011;8085;53.472;9.794;2023-04-25T12:21:42;5.80;;;1.33;;
15968;SDS011;8085;53.472;9.794;2023-04-25T12:24:10;5.13;;;1.43;;
15968;SDS011;8085;53.472;9.794;2023-04-25T12:26:46;6.57;;;1.67;;
15968;SDS011;8085;53.472;9.794;2023-04-25T12:29:17;7.90;;;1.40;;
15968;SDS011;8085;53.472;9.794;2023-04-25T12:31:52;6.53;;;1.40;;
15968;SDS011;8085;53.472;9.794;2023-04-25T12:34:21;6.47;;;1.37;;
15968;SDS011;8085;53.472;9.794;2023-04-25T12:36:49;5.43;;;1.23;;
15968;SDS011;8085;53.472;9.794;2023-04-25T12:39:17;5.57;;;1.30;;
15968;SDS011;8085;53.472;9.794;2023-04-25T12:41:45;5.93;;;1.20;;
15968;SDS011;8085;53.472;9.794;2023-04-25T12:44:12;6.63;;;1.27;;
15968;SDS011;8085;53.472;9.794;2023-04-25T12:46:40;6.93;;;1.50;;
15968;SDS011;8085;53.472;9.794;2023-04-25T12:49:07;7.00;;;1.50;;
15968;SDS011;8085;53.472;9.794;2023-04-25T12:51:36;4.80;;;1.43;;
15968;SDS011;8085;53.472;9.794;2023-04-25T12:54:04;9.30;;;1.50;;
15968;SDS011;8085;53.472;9.794;2023-04-25T12:56:32;5.20;;;1.53;;
15968;SDS011;8085;53.472;9.794;2023-04-25T12:58:59;8.13;;;1.70;;
15968;SDS011;8085;53.472;9.794;2023-04-25T13:01:26;5.60;;;1.40;;
15968;SDS011;8085;53.472;9.794;2023-04-25T13:03:52;4.87;;;1.50;;
15968;SDS011;8085;53.472;9.794;2023-04-25T13:06:20;4.90;;;1.23;;
15968;SDS011;8085;53.472;9.794;2023-04-25T13:08:49;4.20;;;1.30;;
15968;SDS011;8085;53.472;9.794;2023-04-25T13:11:16;4.10;;;1.23;;
15968;SDS011;8085;53.472;9.794;2023-04-25T13:13:43;6.63;;;1.43;;
15968;SDS011;8085;53.472;9.794;2023-04-25T13:16:10;4.37;;;1.70;;
15968;SDS011;8085;53.472;9.794;2023-04-25T13:18:39;7.13;;;1.57;;
15968;SDS011;8085;53.472;9.794;2023-04-25T13:21:06;5.60;;;1.60;;
15968;SDS011;8085;53.472;9.794;2023-04-25T13:23:35;2.73;;;1.03;;
15968;SDS011;8085;53.472;9.794;2023-04-25T13:26:04;5.57;;;1.40;;
15968;SDS011;8085;53.472;9.794;2023-04-25T13:28:31;6.57;;;1.30;;
15968;SDS011;8085;53.472;9.794;2023-04-25T13:30:58;11.03;;;1.67;;
15968;SDS011;8085;53.472;9.794;2023-04-25T13:33:25;5.20;;;1.33;;
15968;SDS011;8085;53.472;9.794;2023-04-25T13:35:52;5.33;;;1.20;;
15968;SDS011;8085;53.472;9.794;2023-04-25T13:38:21;5.17;;;1.57;;
15968;SDS011;8085;53.472;9.794;2023-04-25T13:40:48;7.60;;;1.63;;
15968;SDS011;8085;53.472;9.794;2023-04-25T13:43:18;4.97;;;1.33;;
15968;SDS011;8085;53.472;9.794;2023-04-25T13:45:46;3.97;;;1.23;;
15968;SDS011;8085;53.472;9.794;2023-04-25T13:48:13;5.90;;;1.43;;
15968;SDS011;8085;53.472;9.794;2023-04-25T13:50:40;8.60;;;1.67;;
15968;SDS011;8085;53.472;9.794;2023-04-25T13:53:07;6.57;;;1.60;;
15968;SDS011;8085;53.472;9.794;2023-04-25T13:55:34;7.17;;;1.50;;
15968;SDS011;8085;53.472;9.794;2023-04-25T13:58:02;9.73;;;1.50;;
15968;SDS011;8085;53.472;9.794;2023-04-25T14:00:39;4.47;;;1.30;;
15968;SDS011;8085;53.472;9.794;2023-04-25T14:03:08;3.93;;;1.27;;
15968;SDS011;8085;53.472;9.794;2023-04-25T14:05:35;5.27;;;1.60;;
15968;SDS011;8085;53.472;9.794;2023-04-25T14:08:07;7.00;;;1.53;;
15968;SDS011;8085;53.472;9.794;2023-04-25T14:10:35;8.27;;;1.77;;
15968;SDS011;8085;53.472;9.794;2023-04-25T14:13:02;5.70;;;1.60;;
15968;SDS011;8085;53.472;9.794;2023-04-25T14:15:32;6.00;;;1.60;;
15968;SDS011;8085;53.472;9.794;2023-04-25T14:18:01;5.87;;;1.43;;
15968;SDS011;8085;53.472;9.794;2023-04-25T14:20:28;11.53;;;1.63;;
15968;SDS011;8085;53.472;9.794;2023-04-25T14:22:55;4.80;;;1.90;;
15968;SDS011;8085;53.472;9.794;2023-04-25T14:25:23;9.83;;;1.87;;
15968;SDS011;8085;53.472;9.794;2023-04-25T14:27:50;12.10;;;2.10;;
15968;SDS011;8085;53.472;9.794;2023-04-25T14:30:17;9.73;;;1.60;;
15968;SDS011;8085;53.472;9.794;2023-04-25T14:32:45;6.40;;;1.53;;
15968;SDS011;8085;53.472;9.794;2023-04-25T14:35:13;6.00;;;1.23;;
15968;SDS011;8085;53.472;9.794;2023-04-25T14:37:40;6.23;;;1.27;;
15968;SDS011;8085;53.472;9.794;2023-04-25T14:40:08;7.77;;;1.57;;
15968;SDS011;8085;53.472;9.794;2023-04-25T14:42:37;7.23;;;1.73;;
15968;SDS011;8085;53.472;9.794;2023-04-25T14:45:05;5.03;;;1.50;;
15968;SDS011;8085;53.472;9.794;2023-04-25T14:47:33;5.03;;;1.40;;
15968;SDS011;8085;53.472;9.794;2023-04-25T14:50:01;8.73;;;1.73;;
15968;SDS011;8085;53.472;9.794;2023-04-25T14:52:29;10.70;;;1.80;;
15968;SDS011;8085;53.472;9.794;2023-04-25T14:54:56;7.90;;;1.50;;
15968;SDS011;8085;53.472;9.794;2023-04-25T14:57:25;6.10;;;1.60;;
15968;SDS011;8085;53.472;9.794;2023-04-25T14:59:51;7.77;;;1.63;;
15968;SDS011;8085;53.472;9.794;2023-04-25T15:02:18;6.40;;;1.63;;
15968;SDS011;8085;53.472;9.794;2023-04-25T15:04:45;9.00;;;1.50;;